Time;durP1;ratioP1;P1;durP2;ratioP2;P2;SDS_P1;SDS_P2;PMS_P1;PMS_P2;Temp;Humidity;BMP_temperature;BMP_pressure;BME280_temperature;BME280_humidity;BME280_pressure;Samples;Min_cycle;Max_cycle;Signal;HPM_P1;HPM_P2
2022/06/12 00:00:39;;;;;;;7.00;2.75;;;14.40;99.90;;;;;;4996937;28;20096;-74
2022/06/12 00:03:08;;;;;;;10.45;3.13;;;14.30;99.90;;;;;;4997591;28;20521;-74
2022/06/12 00:05:36;;;;;;;8.35;3.00;;;14.20;99.90;;;;;;4997272;28;20050;-74
2022/06/12 00:08:05;;;;;;;10.50;2.83;;;14.20;99.90;;;;;;4997837;28;20042;-74
2022/06/12 00:10:30;;;;;;;12.20;3.13;;;14.20;99.90;;;;;;4996759;28;20104;-74
2022/06/12 00:12:56;;;;;;;9.93;3.40;;;14.10;99.90;;;;;;4998025;28;20442;-74
2022/06/12 00:15:26;;;;;;;8.30;2.50;;;14.10;99.90;;;;;;4997592;28;20046;-74
2022/06/12 00:17:53;;;;;;;7.75;2.42;;;14.20;99.90;;;;;;4996454;28;20537;-74
2022/06/12 00:20:19;;;;;;;11.25;2.85;;;14.20;99.90;;;;;;4996656;28;20451;-74
2022/06/12 00:22:46;;;;;;;6.15;1.80;;;14.10;99.90;;;;;;4980229;28;20129;-75
2022/06/12 00:25:14;;;;;;;6.95;2.50;;;14.00;99.90;;;;;;4997540;28;20061;-74
2022/06/12 00:27:41;;;;;;;4.97;2.05;;;14.00;99.90;;;;;;4998010;28;20046;-74
2022/06/12 00:30:09;;;;;;;7.40;1.88;;;14.00;99.90;;;;;;4996263;28;20356;-74
2022/06/12 00:32:35;;;;;;;5.70;2.00;;;14.00;99.90;;;;;;4995832;28;20097;-74
2022/06/12 00:35:02;;;;;;;7.80;2.20;;;14.00;99.90;;;;;;4997132;28;20054;-74
2022/06/12 00:37:28;;;;;;;6.82;2.08;;;13.90;99.90;;;;;;4997867;28;20046;-74
2022/06/12 00:39:56;;;;;;;7.63;2.00;;;14.00;99.90;;;;;;4996001;28;20101;-74
2022/06/12 00:42:30;;;;;;;9.45;2.30;;;14.00;99.90;;;;;;4979968;28;20047;-74
2022/06/12 00:44:59;;;;;;;7.97;1.77;;;13.90;99.90;;;;;;4996531;28;20101;-74
2022/06/12 00:47:26;;;;;;;5.25;1.90;;;13.90;99.90;;;;;;4997060;28;20050;-74
2022/06/12 00:50:03;;;;;;;6.55;1.88;;;13.90;99.90;;;;;;4995866;28;20101;-74
2022/06/12 00:52:36;;;;;;;7.78;2.17;;;13.90;99.90;;;;;;4997094;28;20195;-74
2022/06/12 00:55:14;;;;;;;8.02;2.42;;;13.90;99.90;;;;;;4997291;28;20054;-74
2022/06/12 00:57:40;;;;;;;7.85;2.35;;;13.90;99.90;;;;;;4997462;28;20046;-74
2022/06/12 01:00:14;;;;;;;4.93;1.90;;;13.80;99.90;;;;;;4979697;28;20053;-74
2022/06/12 01:02:41;;;;;;;6.60;1.70;;;13.80;99.90;;;;;;4996886;28;20053;-74
2022/06/12 01:08:00;;;;;;;9.55;2.03;;;13.80;99.90;;;;;;4995433;28;20050;-74
2022/06/12 01:10:28;;;;;;;9.27;1.85;;;13.70;99.90;;;;;;4995628;28;20054;-74
2022/06/12 01:13:19;;;;;;;8.25;2.00;;;13.80;99.90;;;;;;4979234;28;20442;-74
2022/06/12 01:16:05;;;;;;;8.23;1.98;;;13.70;99.90;;;;;;4979622;28;20049;-73
2022/06/12 01:18:36;;;;;;;8.90;2.03;;;13.60;99.90;;;;;;4996427;28;20058;-74
2022/06/12 01:21:25;;;;;;;5.97;2.20;;;13.60;99.90;;;;;;4996532;28;20050;-73
2022/06/12 01:24:17;;;;;;;6.13;1.88;;;13.60;99.90;;;;;;4979283;28;20077;-74
2022/06/12 01:27:00;;;;;;;6.90;2.28;;;13.70;99.90;;;;;;4995037;28;20073;-74
2022/06/12 01:29:40;;;;;;;7.97;2.40;;;13.60;99.90;;;;;;4996248;28;20077;-74
2022/06/12 01:32:25;;;;;;;7.00;2.35;;;13.70;99.90;;;;;;4996088;28;20490;-74
2022/06/12 01:35:06;;;;;;;4.30;1.77;;;13.70;99.90;;;;;;4995749;28;20490;-74
2022/06/12 01:38:01;;;;;;;4.70;1.55;;;13.70;99.90;;;;;;4996094;28;20057;-73
2022/06/12 01:40:35;;;;;;;5.00;1.80;;;13.50;99.90;;;;;;4994786;28;20057;-74
2022/06/12 01:43:23;;;;;;;3.15;1.58;;;13.70;99.90;;;;;;4995951;28;20089;-74
2022/06/12 01:46:15;;;;;;;8.13;2.30;;;13.70;99.90;;;;;;4996092;28;20085;-73
2022/06/12 01:48:53;;;;;;;6.25;2.30;;;13.70;99.90;;;;;;4996339;28;20054;-73
2022/06/12 01:51:35;;;;;;;6.93;2.03;;;13.80;99.90;;;;;;4994985;28;20510;-74
2022/06/12 01:54:15;;;;;;;7.40;2.40;;;13.70;99.90;;;;;;4994595;28;20490;-75
2022/06/12 01:56:48;;;;;;;7.75;2.50;;;13.70;99.90;;;;;;4994700;28;20039;-74
2022/06/12 01:59:26;;;;;;;6.10;2.25;;;13.70;99.90;;;;;;4995807;28;20057;-73
2022/06/12 02:02:12;;;;;;;5.72;2.30;;;13.90;99.90;;;;;;4995423;28;20054;-73
2022/06/12 02:04:56;;;;;;;7.10;2.03;;;13.70;99.90;;;;;;4978545;28;20054;-74
2022/06/12 02:07:43;;;;;;;7.50;2.47;;;13.70;99.90;;;;;;4995488;28;20108;-73
2022/06/12 02:10:17;;;;;;;5.38;2.00;;;13.70;99.90;;;;;;4994892;28;20046;-74
2022/06/12 02:13:18;;;;;;;5.15;1.85;;;13.60;99.90;;;;;;4979202;28;20446;-74
2022/06/12 02:16:03;;;;;;;6.50;1.92;;;13.60;99.90;;;;;;4982792;28;20058;-73
2022/06/12 02:18:36;;;;;;;6.40;1.92;;;13.60;99.90;;;;;;4995056;28;20039;-73
2022/06/12 02:21:13;;;;;;;4.90;2.08;;;13.60;99.90;;;;;;4996023;28;20057;-73
2022/06/12 02:23:50;;;;;;;5.10;1.80;;;13.60;99.90;;;;;;4995338;28;20053;-73
2022/06/12 02:26:20;;;;;;;5.45;1.95;;;13.50;99.90;;;;;;4995114;28;20482;-73
2022/06/12 02:28:52;;;;;;;6.00;1.60;;;13.60;99.90;;;;;;4995221;28;20053;-73
2022/06/12 02:31:23;;;;;;;7.30;2.00;;;13.60;99.90;;;;;;4995547;28;20049;-74
2022/06/12 02:33:56;;;;;;;5.70;1.70;;;13.50;99.90;;;;;;4994746;28;20046;-76
2022/06/12 02:36:26;;;;;;;6.43;2.25;;;13.50;99.90;;;;;;4995253;28;20093;-77
2022/06/12 02:39:20;;;;;;;5.60;1.77;;;13.40;99.90;;;;;;4993979;28;20049;-76
2022/06/12 02:41:58;;;;;;;5.72;1.65;;;13.40;99.90;;;;;;4992939;28;20054;-76
2022/06/12 02:44:44;;;;;;;6.35;1.65;;;13.40;99.90;;;;;;4995255;28;20055;-77
2022/06/12 02:47:15;;;;;;;4.55;1.83;;;13.40;99.90;;;;;;4995668;28;20435;-76
2022/06/12 02:49:44;;;;;;;10.15;2.05;;;13.50;99.90;;;;;;4978742;28;20050;-76
2022/06/12 02:52:38;;;;;;;5.28;1.63;;;13.40;99.90;;;;;;4977711;28;20077;-76
2022/06/12 02:55:13;;;;;;;5.40;1.88;;;13.40;99.90;;;;;;4994860;28;20061;-76
2022/06/12 02:57:51;;;;;;;5.60;1.85;;;13.40;99.90;;;;;;4994754;28;20133;-76
2022/06/12 03:00:43;;;;;;;4.22;2.00;;;13.40;99.90;;;;;;4995441;28;20053;-76
2022/06/12 03:03:16;;;;;;;9.77;2.05;;;13.40;99.90;;;;;;4994799;28;20104;-76
2022/06/12 03:05:43;;;;;;;;;;;13.40;99.90;;;;;;4994968;28;20077;-76
2022/06/12 03:08:15;;;;;;;8.68;1.95;;;13.40;99.90;;;;;;4976993;28;19921;-76
2022/06/12 03:10:51;;;;;;;3.83;1.83;;;13.30;99.90;;;;;;4977612;28;20054;-76
2022/06/12 03:13:18;;;;;;;5.28;2.15;;;13.30;99.90;;;;;;4994121;28;20371;-77
2022/06/12 03:15:57;;;;;;;6.95;2.28;;;13.30;99.90;;;;;;4994969;28;20173;-76
2022/06/12 03:18:29;;;;;;;7.57;2.00;;;13.30;99.90;;;;;;4993416;28;20054;-76
2022/06/12 03:21:05;;;;;;;6.40;1.90;;;13.30;99.90;;;;;;4977575;28;20042;-77
2022/06/12 03:23:46;;;;;;;6.20;1.58;;;13.20;99.90;;;;;;4994497;28;20085;-76
2022/06/12 03:26:44;;;;;;;5.05;1.67;;;13.20;99.90;;;;;;4993733;28;20540;-76
2022/06/12 03:29:18;;;;;;;5.35;1.80;;;13.20;99.90;;;;;;4959243;28;20051;-76
2022/06/12 03:32:02;;;;;;;7.90;2.38;;;13.20;99.90;;;;;;4993424;28;20053;-76
2022/06/12 03:34:39;;;;;;;6.95;1.98;;;13.20;99.90;;;;;;4977189;28;20050;-76
2022/06/12 03:37:11;;;;;;;4.43;1.58;;;13.20;99.90;;;;;;4977148;28;20105;-76
2022/06/12 03:40:08;;;;;;;4.93;1.55;;;13.20;99.90;;;;;;4994037;28;20068;-76
2022/06/12 03:42:36;;;;;;;6.47;2.92;;;13.20;99.90;;;;;;4994271;28;20113;-76
2022/06/12 03:45:13;;;;;;;7.07;1.77;;;13.60;99.90;;;;;;4977323;28;20049;-76
2022/06/12 03:47:50;;;;;;;6.13;2.05;;;13.20;99.90;;;;;;4977036;28;20077;-76
2022/06/12 03:51:14;;;;;;;6.72;2.00;;;13.20;99.90;;;;;;4994206;28;20509;-76
2022/06/12 03:54:22;;;;;;;6.55;2.10;;;13.30;99.90;;;;;;4955945;28;20170;-77
2022/06/12 03:59:51;;;;;;;4.07;1.52;;;13.20;99.90;;;;;;4993843;28;20105;-76
2022/06/12 04:02:22;;;;;;;5.47;1.95;;;13.20;99.90;;;;;;4994014;28;20118;-76
2022/06/12 04:04:51;;;;;;;3.85;1.55;;;13.10;99.90;;;;;;4994061;28;20136;-76
2022/06/12 04:07:21;;;;;;;6.70;2.10;;;13.10;99.90;;;;;;4993927;28;20057;-76
2022/06/12 04:09:50;;;;;;;8.15;2.00;;;13.10;99.90;;;;;;4994127;28;20042;-76
2022/06/12 04:12:35;;;;;;;4.45;1.58;;;13.10;99.90;;;;;;4992903;28;20061;-76
2022/06/12 04:15:28;;;;;;;3.45;1.63;;;13.20;99.90;;;;;;4977626;28;20065;-76
2022/06/12 04:17:55;;;;;;;6.88;1.65;;;13.20;99.90;;;;;;4993749;28;20050;-76
2022/06/12 04:20:47;;;;;;;3.67;1.50;;;13.20;99.90;;;;;;4976631;28;20418;-76
2022/06/12 04:23:29;;;;;;;3.40;1.08;;;13.20;99.90;;;;;;4990962;28;20073;-77
2022/06/12 04:26:00;;;;;;;6.25;1.70;;;13.20;99.90;;;;;;4992552;28;20062;-77
2022/06/12 04:28:36;;;;;;;3.78;1.40;;;13.20;99.90;;;;;;4993102;28;20054;-77
2022/06/12 04:31:08;;;;;;;2.97;1.50;;;13.20;99.90;;;;;;4976881;28;20050;-77
2022/06/12 04:33:39;;;;;;;4.23;1.87;;;13.20;99.90;;;;;;4993072;28;20058;-76
2022/06/12 04:36:06;;;;;;;4.63;1.30;;;13.20;99.90;;;;;;4992605;28;20049;-77
2022/06/12 04:38:34;;;;;;;5.28;1.50;;;13.20;99.90;;;;;;4976521;28;20096;-77
2022/06/12 04:41:00;;;;;;;4.65;1.63;;;13.20;99.90;;;;;;4992603;28;20062;-77
2022/06/12 04:43:30;;;;;;;4.93;1.50;;;13.20;99.90;;;;;;4996280;28;20042;-77
2022/06/12 04:45:56;;;;;;;4.75;1.35;;;13.30;99.90;;;;;;4997149;28;20038;-77
2022/06/12 04:48:38;;;;;;;9.65;2.72;;;13.30;99.90;;;;;;4995921;28;20348;-77
2022/06/12 04:51:06;;;;;;;7.07;2.15;;;13.30;99.90;;;;;;4979946;28;20502;-77
2022/06/12 04:53:33;;;;;;;4.75;1.58;;;13.40;99.90;;;;;;4996822;28;20112;-77
2022/06/12 04:55:59;;;;;;;7.30;2.08;;;13.40;99.90;;;;;;4996907;28;20057;-76
2022/06/12 04:58:25;;;;;;;4.35;1.40;;;13.40;99.90;;;;;;4997538;28;20418;-76
2022/06/12 05:00:51;;;;;;;7.85;2.00;;;13.60;99.90;;;;;;4995983;28;20077;-77
2022/06/12 05:03:17;;;;;;;6.28;2.33;;;13.50;99.90;;;;;;4996811;28;20133;-76
2022/06/12 05:05:44;;;;;;;6.85;1.90;;;13.50;99.90;;;;;;4996619;28;20213;-76
2022/06/12 05:08:10;;;;;;;6.47;2.00;;;13.50;99.90;;;;;;4996770;28;20057;-76
2022/06/12 05:10:36;;;;;;;6.95;2.15;;;13.60;99.90;;;;;;4995904;28;20046;-77
2022/06/12 05:13:02;;;;;;;5.80;2.72;;;13.60;99.90;;;;;;4995710;28;20042;-76
2022/06/12 05:15:29;;;;;;;9.65;3.53;;;13.60;99.90;;;;;;4996316;28;20185;-76
2022/06/12 05:17:55;;;;;;;13.00;6.55;;;13.70;99.90;;;;;;4995391;28;20053;-76
2022/06/12 05:20:28;;;;;;;12.65;6.45;;;13.70;99.90;;;;;;4996503;28;20046;-76
2022/06/12 05:22:55;;;;;;;18.65;9.27;;;13.90;99.90;;;;;;4995873;28;20049;-77
2022/06/12 05:25:21;;;;;;;20.40;10.52;;;13.80;99.90;;;;;;4996270;28;20129;-77
2022/06/12 05:27:48;;;;;;;16.67;10.25;;;13.90;99.90;;;;;;4996418;28;20367;-76
2022/06/12 05:30:20;;;;;;;17.90;9.70;;;13.90;99.90;;;;;;4997148;28;20057;-76
2022/06/12 05:32:48;;;;;;;16.38;10.02;;;14.00;99.90;;;;;;4996152;28;20451;-77
2022/06/12 05:35:14;;;;;;;23.08;14.98;;;14.10;99.90;;;;;;4996197;28;20076;-77
2022/06/12 05:37:41;;;;;;;26.63;16.90;;;14.10;99.90;;;;;;4996217;28;20046;-77
2022/06/12 05:40:11;;;;;;;26.33;16.75;;;14.20;99.90;;;;;;4994977;28;20082;-77
2022/06/12 05:42:38;;;;;;;26.23;15.73;;;14.20;99.90;;;;;;4996756;28;20100;-77
2022/06/12 05:45:10;;;;;;;27.25;14.23;;;14.30;99.90;;;;;;4994866;28;20050;-77
2022/06/12 05:47:44;;;;;;;23.17;12.93;;;14.30;99.90;;;;;;4996397;28;20146;-77
2022/06/12 05:50:11;;;;;;;18.00;9.55;;;14.40;99.90;;;;;;4996034;28;20104;-77
2022/06/12 05:52:36;;;;;;;17.02;8.90;;;14.40;99.90;;;;;;4994845;28;20061;-77
2022/06/12 05:55:03;;;;;;;13.60;7.90;;;14.50;99.90;;;;;;4993530;28;20054;-77
2022/06/12 05:57:28;;;;;;;14.38;7.72;;;14.50;99.90;;;;;;4995774;28;20042;-77
2022/06/12 05:59:54;;;;;;;13.93;7.93;;;14.60;99.90;;;;;;4978915;28;20368;-77
2022/06/12 06:02:20;;;;;;;14.27;11.05;;;14.60;99.90;;;;;;4995728;28;20050;-77
2022/06/12 06:04:45;;;;;;;19.05;11.30;;;14.70;99.90;;;;;;4995593;28;20051;-77
2022/06/12 06:07:11;;;;;;;15.07;8.85;;;14.80;99.90;;;;;;4995659;28;20046;-77
2022/06/12 06:09:37;;;;;;;18.15;10.23;;;14.80;99.90;;;;;;4995611;28;20046;-85
2022/06/12 06:12:03;;;;;;;17.05;9.13;;;14.80;99.90;;;;;;4978396;28;20046;-86
2022/06/12 06:14:29;;;;;;;16.85;9.50;;;14.90;99.90;;;;;;4979236;28;20054;-86
2022/06/12 06:16:55;;;;;;;16.73;9.75;;;15.00;99.90;;;;;;4978026;28;20042;-86
2022/06/12 06:19:21;;;;;;;19.02;9.00;;;15.00;99.90;;;;;;4946635;28;20133;-86
2022/06/12 06:21:46;;;;;;;18.30;9.70;;;15.10;99.90;;;;;;4978463;28;20042;-85
2022/06/12 06:24:13;;;;;;;16.70;8.98;;;15.10;99.90;;;;;;4978181;28;20093;-85
2022/06/12 06:26:39;;;;;;;21.48;8.10;;;15.20;99.90;;;;;;4994351;28;20050;-86
2022/06/12 06:29:06;;;;;;;9.40;3.45;;;15.20;99.90;;;;;;4978226;28;20137;-85
2022/06/12 06:31:32;;;;;;;8.25;2.08;;;15.30;99.90;;;;;;4978277;28;20126;-85
2022/06/12 06:33:58;;;;;;;11.13;2.40;;;15.30;99.90;;;;;;4995037;28;20446;-82
2022/06/12 06:36:24;;;;;;;12.73;2.10;;;15.40;99.90;;;;;;4978613;28;20046;-81
2022/06/12 06:38:52;;;;;;;9.63;2.05;;;15.50;99.90;;;;;;4977513;28;20085;-85
2022/06/12 06:41:18;;;;;;;12.48;2.35;;;15.50;99.90;;;;;;4993819;28;20455;-85
2022/06/12 06:46:30;;;;;;;10.95;2.60;;;15.60;99.90;;;;;;4993950;28;20410;-88
2022/06/12 06:48:56;;;;;;;9.13;2.53;;;15.60;99.90;;;;;;4994211;28;20047;-89
2022/06/12 06:51:22;;;;;;;5.35;2.10;;;15.60;99.90;;;;;;4993868;28;20050;-89
2022/06/12 06:53:48;;;;;;;8.75;2.28;;;15.70;99.90;;;;;;4977548;28;20474;-89
2022/06/12 06:56:15;;;;;;;11.23;2.35;;;15.80;99.90;;;;;;4993541;28;20062;-89
2022/06/12 06:58:40;;;;;;;8.30;2.60;;;15.80;99.90;;;;;;4977584;28;20046;-85
2022/06/12 07:01:07;;;;;;;9.90;2.35;;;15.90;99.90;;;;;;4978576;28;20054;-85
2022/06/12 07:03:33;;;;;;;10.23;2.40;;;15.90;99.90;;;;;;4978171;28;20444;-85
2022/06/12 07:05:59;;;;;;;6.97;1.63;;;16.00;99.90;;;;;;4977461;28;20125;-83
2022/06/12 07:08:26;;;;;;;10.48;2.28;;;16.00;99.90;;;;;;4993404;28;20085;-86
2022/06/12 07:10:54;;;;;;;8.68;2.17;;;16.10;99.90;;;;;;4977374;28;20042;-83
2022/06/12 07:13:20;;;;;;;11.07;2.17;;;16.10;99.90;;;;;;4993937;28;20348;-87
2022/06/12 07:15:47;;;;;;;6.45;1.85;;;16.20;99.90;;;;;;4993586;28;20047;-85
2022/06/12 07:18:14;;;;;;;9.98;1.80;;;16.30;99.90;;;;;;4994305;28;20475;-85
2022/06/12 07:20:46;;;;;;;10.77;2.10;;;16.30;99.90;;;;;;4978266;28;20461;-84
2022/06/12 07:23:14;;;;;;;13.98;2.83;;;16.30;99.90;;;;;;4977474;28;20475;-84
2022/06/12 07:25:43;;;;;;;10.15;2.22;;;16.40;99.90;;;;;;4977065;28;20133;-87
2022/06/12 07:28:09;;;;;;;8.43;2.22;;;16.50;99.90;;;;;;4994971;28;20114;-84
2022/06/12 07:30:35;;;;;;;9.50;2.28;;;16.60;99.90;;;;;;4977354;28;20047;-84
2022/06/12 07:33:01;;;;;;;16.38;4.95;;;16.70;99.90;;;;;;4978138;28;20050;-84
2022/06/12 07:35:27;;;;;;;10.75;3.10;;;16.80;99.90;;;;;;4977471;28;20053;-80
2022/06/12 07:37:52;;;;;;;9.85;2.92;;;16.90;99.90;;;;;;4961972;28;20133;-86
2022/06/12 07:40:28;;;;;;;11.80;3.08;;;16.90;99.90;;;;;;4976887;28;20051;-87
2022/06/12 07:42:54;;;;;;;9.93;1.75;;;17.00;99.90;;;;;;4993726;28;20394;-87
2022/06/12 07:45:20;;;;;;;10.05;1.88;;;17.10;99.90;;;;;;4977150;28;20043;-88
2022/06/12 07:47:46;;;;;;;9.00;2.30;;;17.10;99.90;;;;;;4995094;28;20364;-89
2022/06/12 07:50:13;;;;;;;11.23;3.10;;;17.10;99.90;;;;;;4994100;28;20423;-87
2022/06/12 07:52:40;;;;;;;9.63;1.90;;;17.20;99.90;;;;;;4977102;28;20047;-86
2022/06/12 07:55:09;;;;;;;8.45;1.73;;;17.20;99.90;;;;;;4993232;28;20065;-87
2022/06/12 07:57:36;;;;;;;9.48;1.55;;;17.30;99.90;;;;;;4992920;28;20453;-87
2022/06/12 08:00:04;;;;;;;6.75;2.72;;;17.30;99.90;;;;;;4993479;28;20136;-87
2022/06/12 08:02:31;;;;;;;12.43;3.10;;;17.40;99.90;;;;;;4992849;28;20043;-87
2022/06/12 08:04:56;;;;;;;8.23;1.80;;;17.50;99.90;;;;;;4960561;28;20054;-87
2022/06/12 08:07:22;;;;;;;9.30;1.60;;;17.60;99.90;;;;;;4994111;28;20042;-87
2022/06/12 08:09:48;;;;;;;7.03;1.60;;;17.60;99.90;;;;;;4993026;28;20050;-87
2022/06/12 08:12:14;;;;;;;8.80;1.63;;;17.70;99.90;;;;;;4994257;28;20054;-87
2022/06/12 08:14:40;;;;;;;6.60;1.48;;;17.80;99.90;;;;;;4977626;28;20050;-85
2022/06/12 08:17:06;;;;;;;6.60;1.55;;;17.90;99.90;;;;;;4961386;28;20038;-86
2022/06/12 08:22:17;;;;;;;7.50;1.75;;;19.50;99.90;;;;;;4983842;28;20503;-88
2022/06/12 08:24:43;;;;;;;6.47;2.00;;;18.30;99.90;;;;;;4964514;28;20089;-87
2022/06/12 08:27:09;;;;;;;12.60;2.10;;;18.30;99.90;;;;;;4996458;28;20054;-89
2022/06/12 08:29:36;;;;;;;10.18;2.20;;;18.40;99.90;;;;;;4980484;28;20053;-90
2022/06/12 08:32:08;;;;;;;10.10;1.80;;;18.50;99.90;;;;;;4996605;28;20054;-88
2022/06/12 08:34:38;;;;;;;8.43;1.92;;;18.50;99.90;;;;;;4980118;28;20165;-84
2022/06/12 08:37:10;;;;;;;8.13;1.58;;;18.50;99.90;;;;;;4980400;28;20049;-84
2022/06/12 08:39:36;;;;;;;6.45;1.88;;;18.50;99.90;;;;;;4996209;28;20493;-85
2022/06/12 08:42:08;;;;;;;7.60;1.70;;;18.60;99.90;;;;;;4995751;28;20050;-85
2022/06/12 08:44:52;;;;;;;7.15;1.83;;;18.60;99.90;;;;;;4995585;28;20046;-83
2022/06/12 08:47:22;;;;;;;7.68;1.60;;;18.70;99.90;;;;;;4995576;28;20042;-85
2022/06/12 08:49:54;;;;;;;7.25;1.45;;;18.70;99.90;;;;;;4995433;28;20038;-83
2022/06/12 08:52:29;;;;;;;6.65;1.50;;;18.80;99.90;;;;;;4996631;28;20038;-86
2022/06/12 08:55:05;;;;;;;9.63;1.40;;;18.80;99.90;;;;;;4994932;28;20137;-86
2022/06/12 08:57:57;;;;;;;7.68;1.40;;;18.90;99.90;;;;;;4994956;28;20042;-82
2022/06/12 09:00:30;;;;;;;5.22;1.63;;;18.80;99.90;;;;;;4996359;28;20133;-84
2022/06/12 09:02:56;;;;;;;;;;;18.80;99.90;;;;;;4996743;28;20112;-83
2022/06/12 09:05:35;;;;;;;4.35;1.45;;;19.00;99.90;;;;;;4995204;28;20012;-84
2022/06/12 09:08:15;;;;;;;6.57;1.30;;;18.70;99.90;;;;;;4995803;28;20061;-85
2022/06/12 09:11:18;;;;;;;5.03;1.30;;;18.70;99.90;;;;;;4996719;28;20363;-83
2022/06/12 09:13:57;;;;;;;5.65;1.40;;;18.70;99.90;;;;;;4994504;28;20509;-84
2022/06/12 09:16:53;;;;;;;7.32;1.63;;;18.80;99.90;;;;;;4994557;28;20137;-84
2022/06/12 09:19:59;;;;;;;7.03;1.38;;;19.50;99.90;;;;;;4994534;28;20054;-85
2022/06/12 09:22:34;;;;;;;4.55;1.20;;;18.90;99.90;;;;;;4989449;28;20406;-87
2022/06/12 09:25:26;;;;;;;8.70;2.13;;;19.00;99.90;;;;;;4994253;28;20046;-86
2022/06/12 09:27:57;;;;;;;8.98;1.33;;;19.10;99.90;;;;;;4978704;28;20089;-85
2022/06/12 09:30:48;;;;;;;7.03;1.38;;;19.20;99.90;;;;;;4994944;28;20052;-85
2022/06/12 09:33:22;;;;;;;7.03;1.25;;;19.30;99.90;;;;;;4995513;28;20061;-86
2022/06/12 09:35:57;;;;;;;7.35;1.40;;;19.30;99.90;;;;;;4994612;28;20046;-85
2022/06/12 09:38:31;;;;;;;8.27;1.85;;;19.40;99.90;;;;;;4995150;28;20129;-84
2022/06/12 09:41:09;;;;;;;6.25;1.55;;;19.50;99.90;;;;;;4994811;28;20042;-85
2022/06/12 09:43:46;;;;;;;5.57;1.10;;;19.50;99.90;;;;;;4978493;28;20136;-86
2022/06/12 09:46:33;;;;;;;8.32;1.58;;;19.60;99.90;;;;;;4995608;28;20129;-85
2022/06/12 09:49:33;;;;;;;4.75;1.23;;;19.60;99.90;;;;;;4994723;28;20061;-84
2022/06/12 09:52:52;;;;;;;4.88;1.10;;;19.60;99.90;;;;;;4978848;28;20101;-85
2022/06/12 09:55:46;;;;;;;4.85;0.98;;;19.80;99.90;;;;;;4957772;28;20058;-81
2022/06/12 09:58:21;;;;;;;7.30;1.17;;;20.00;99.90;;;;;;4994934;28;20046;-86
2022/06/12 10:00:56;;;;;;;3.53;0.90;;;20.10;99.90;;;;;;4979220;28;20053;-84
2022/06/12 10:03:43;;;;;;;7.45;1.58;;;20.20;99.90;;;;;;4993932;28;20137;-84
2022/06/12 10:06:24;;;;;;;5.55;1.10;;;20.30;99.90;;;;;;4994411;28;20136;-85
2022/06/12 10:09:11;;;;;;;4.38;1.20;;;20.30;99.90;;;;;;4995278;28;20487;-82
2022/06/12 10:11:44;;;;;;;16.42;2.38;;;20.30;99.90;;;;;;4995024;28;20073;-83
2022/06/12 10:14:39;;;;;;;6.55;1.02;;;20.20;99.90;;;;;;4978774;28;20496;-84
2022/06/12 10:17:17;;;;;;;5.57;1.48;;;20.20;99.90;;;;;;4994755;28;20542;-86
2022/06/12 10:19:53;;;;;;;8.30;1.35;;;20.20;99.90;;;;;;4994775;28;20042;-84
2022/06/12 10:22:38;;;;;;;2.92;1.10;;;20.20;99.90;;;;;;4994872;28;20054;-88
2022/06/12 10:25:07;;;;;;;7.78;0.90;;;20.20;99.90;;;;;;4994688;28;20383;-81
2022/06/12 10:27:55;;;;;;;7.55;1.23;;;20.10;99.90;;;;;;4995863;28;20057;-80
2022/06/12 10:30:43;;;;;;;4.38;1.05;;;20.00;99.90;;;;;;4994103;28;20046;-81
2022/06/12 10:33:18;;;;;;;5.65;1.30;;;19.90;99.90;;;;;;4993729;28;20089;-82
2022/06/12 10:36:05;;;;;;;7.30;1.13;;;19.80;99.90;;;;;;4994600;28;20101;-82
2022/06/12 10:38:34;;;;;;;6.07;1.63;;;19.70;99.90;;;;;;4995433;28;20053;-82
2022/06/12 10:41:04;;;;;;;5.05;1.20;;;19.70;99.90;;;;;;4992998;28;20061;-78
2022/06/12 10:43:38;;;;;;;6.60;2.03;;;19.80;99.90;;;;;;4993579;28;20058;-83
2022/06/12 10:46:29;;;;;;;3.63;1.10;;;19.90;99.90;;;;;;4994587;28;20090;-81
2022/06/12 10:49:16;;;;;;;3.17;1.10;;;20.00;99.90;;;;;;4995310;28;20122;-82
2022/06/12 10:51:43;;;;;;;4.82;1.05;;;20.10;99.90;;;;;;4993567;28;20054;-83
2022/06/12 10:54:23;;;;;;;5.80;0.90;;;20.20;99.90;;;;;;4993351;28;20138;-76
2022/06/12 10:57:31;;;;;;;5.03;1.00;;;20.30;99.90;;;;;;4994924;28;20133;-83
2022/06/12 11:00:04;;;;;;;3.20;0.82;;;20.30;99.90;;;;;;4993945;28;20093;-84
2022/06/12 11:02:36;;;;;;;;;;;20.40;99.90;;;;;;4994291;28;20046;-79
2022/06/12 11:05:15;;;;;;;2.47;0.70;;;20.50;99.90;;;;;;4993736;28;19937;-76
2022/06/12 11:07:47;;;;;;;5.18;0.80;;;20.70;99.90;;;;;;4993524;28;20138;-81
2022/06/12 11:10:31;;;;;;;3.65;0.63;;;20.80;99.90;;;;;;4993935;28;20051;-77
2022/06/12 11:13:18;;;;;;;4.63;0.70;;;20.90;99.90;;;;;;4993506;28;20161;-81
2022/06/12 11:15:50;;;;;;;2.85;0.70;;;20.90;99.90;;;;;;4993269;28;20093;-77
2022/06/12 11:18:32;;;;;;;3.65;0.70;;;20.90;99.90;;;;;;4992974;28;20053;-79
2022/06/12 11:21:31;;;;;;;3.38;0.70;;;21.00;98.80;;;;;;4993358;28;20439;-78
2022/06/12 11:24:18;;;;;;;4.53;1.10;;;21.00;98.10;;;;;;4985651;28;20058;-80
2022/06/12 11:26:52;;;;;;;2.45;0.65;;;21.10;97.70;;;;;;4994477;28;20056;-80
2022/06/12 11:29:39;;;;;;;3.53;0.75;;;21.10;97.40;;;;;;4992899;28;20051;-80
2022/06/12 11:32:35;;;;;;;1.90;0.52;;;21.20;96.20;;;;;;4993010;28;20558;-77
2022/06/12 11:35:24;;;;;;;2.03;0.70;;;21.20;96.30;;;;;;4992410;28;20042;-78
2022/06/12 11:38:14;;;;;;;3.20;0.70;;;21.10;95.20;;;;;;4993859;28;20478;-80
2022/06/12 11:41:15;;;;;;;2.25;0.60;;;21.10;95.20;;;;;;4994141;28;20043;-80
2022/06/12 11:44:10;;;;;;;2.70;0.65;;;21.10;94.90;;;;;;4993011;28;20202;-81
2022/06/12 11:46:55;;;;;;;4.70;0.70;;;20.90;93.90;;;;;;4989472;28;20449;-79
2022/06/12 11:49:33;;;;;;;2.60;0.70;;;20.90;95.50;;;;;;4976725;28;20047;-81
2022/06/12 11:52:23;;;;;;;1.88;0.50;;;20.90;94.00;;;;;;4977687;28;20109;-80
2022/06/12 11:54:54;;;;;;;1.92;0.60;;;20.90;93.90;;;;;;4998055;28;20054;-80
2022/06/12 11:57:27;;;;;;;2.97;0.68;;;21.00;93.00;;;;;;4996435;28;20050;-84
2022/06/12 12:00:02;;;;;;;3.08;0.50;;;21.10;91.10;;;;;;4998336;28;20046;-78
2022/06/12 12:02:56;;;;;;;1.67;0.60;;;21.20;90.80;;;;;;4996907;28;20046;-81
2022/06/12 12:05:45;;;;;;;2.13;0.50;;;21.30;91.30;;;;;;4997166;28;20038;-83
2022/06/12 12:08:14;;;;;;;2.97;0.90;;;21.40;86.30;;;;;;4997422;28;20491;-80
2022/06/12 12:10:47;;;;;;;3.22;0.77;;;21.00;89.70;;;;;;4997257;28;20057;-80
2022/06/12 12:13:31;;;;;;;1.95;0.68;;;21.40;90.70;;;;;;4997794;28;20054;-77
2022/06/12 12:16:04;;;;;;;1.83;0.50;;;21.40;83.70;;;;;;4996188;28;20051;-78
2022/06/12 12:18:37;;;;;;;1.73;0.50;;;21.50;85.20;;;;;;4996699;28;20411;-80
2022/06/12 12:21:19;;;;;;;2.88;0.98;;;21.60;84.00;;;;;;4997661;28;20060;-77
2022/06/12 12:23:47;;;;;;;3.78;0.90;;;21.60;83.80;;;;;;4996013;28;20052;-79
2022/06/12 12:26:28;;;;;;;4.18;1.15;;;21.60;84.60;;;;;;4996057;28;20050;-78
2022/06/12 12:29:00;;;;;;;3.13;0.93;;;21.60;84.90;;;;;;4996344;28;20046;-76
2022/06/12 12:31:28;;;;;;;3.50;0.60;;;21.60;84.20;;;;;;4997611;28;20046;-80
2022/06/12 12:33:55;;;;;;;3.25;0.60;;;21.50;84.00;;;;;;4997718;28;20051;-77
2022/06/12 12:42:25;;;;;;;2.35;0.80;;;21.50;83.60;;;;;;4995878;28;20148;-80
2022/06/12 12:44:52;;;;;;;1.60;0.98;;;21.60;85.80;;;;;;4995715;28;20501;-78
2022/06/12 12:47:22;;;;;;;3.55;0.70;;;21.70;87.20;;;;;;4996673;28;20181;-78
2022/06/12 12:49:48;;;;;;;2.83;0.68;;;21.80;85.60;;;;;;4996809;28;20046;-80
2022/06/12 12:52:18;;;;;;;2.75;0.70;;;21.70;84.30;;;;;;4995502;28;20516;-75
2022/06/12 12:54:51;;;;;;;3.25;0.70;;;21.60;84.40;;;;;;4995913;28;20065;-77
2022/06/12 12:57:21;;;;;;;;;;;21.60;85.10;;;;;;4996906;28;20471;-80
2022/06/12 12:59:50;;;;;;;2.92;0.90;;;21.50;84.60;;;;;;4979240;28;19921;-78
2022/06/12 13:02:20;;;;;;;3.22;0.90;;;21.30;84.00;;;;;;4996447;28;20086;-78
2022/06/12 13:04:45;;;;;;;3.55;0.70;;;21.20;84.50;;;;;;4994916;28;20543;-78
2022/06/12 13:07:26;;;;;;;2.78;0.68;;;21.20;85.60;;;;;;4979277;28;20046;-76
2022/06/12 13:10:33;;;;;;;2.90;0.60;;;21.30;85.40;;;;;;4995607;28;20475;-81
2022/06/12 13:13:07;;;;;;;2.80;0.70;;;21.40;83.20;;;;;;4996868;28;20042;-79
2022/06/12 13:16:03;;;;;;;2.25;0.65;;;21.50;84.40;;;;;;4979016;28;20057;-84
2022/06/12 13:19:08;;;;;;;4.43;0.80;;;21.50;84.10;;;;;;4995249;28;20055;-81
2022/06/12 13:22:01;;;;;;;3.42;0.98;;;21.50;84.70;;;;;;4995638;28;20058;-81
2022/06/12 13:24:41;;;;;;;4.40;0.70;;;21.40;84.30;;;;;;4995325;28;20046;-79
2022/06/12 13:27:23;;;;;;;2.45;0.60;;;21.40;83.50;;;;;;4996517;28;20360;-80
2022/06/12 13:29:50;;;;;;;2.15;0.63;;;21.40;85.10;;;;;;4995538;28;20411;-76
2022/06/12 13:32:35;;;;;;;3.13;0.90;;;21.40;84.70;;;;;;4995926;28;20378;-79
2022/06/12 13:35:19;;;;;;;2.85;0.70;;;21.40;84.70;;;;;;4995902;28;20085;-79
2022/06/12 13:37:49;;;;;;;2.63;0.90;;;21.30;83.40;;;;;;4994825;28;20039;-76
2022/06/12 13:40:35;;;;;;;2.70;0.75;;;21.10;84.10;;;;;;4995889;28;20046;-77
2022/06/12 13:43:22;;;;;;;2.65;0.70;;;21.00;83.60;;;;;;4994775;28;20487;-79